METAR Data
IDs: Format: Raw Decoded Include TAF

Data at: 2155 UTC 08 Aug 2020

KPWT 082056Z AUTO 05005KT 10SM -RA BKN022 BKN027 16/14 A3023 RMK AO2 RAB37 SLP242 P0000 6//// T01610139 51007
KPWT 082015Z AUTO VRB03KT 10SM FEW017 BKN025 BKN035 17/13 A3022 RMK AO2
KPWT 081956Z AUTO VRB03KT 10SM FEW018 BKN035 17/13 A3023 RMK AO2 SLP239 T01720133
KPWT 081856Z AUTO 08004KT 10SM BKN018 BKN027 17/13 A3022 RMK AO2 SLP238 T01670128
KPWT 081756Z AUTO 13004KT 10SM SCT012 BKN019 BKN026 17/14 A3021 RMK AO2 SLP234 6//// T01670139 10167 20133 53006
KPWT 081739Z AUTO 11005KT 10SM BKN010 BKN017 17/14 RMK AO2 $
KPWT 081708Z AUTO 00000KT 10SM FEW008 BKN017 16/13 A3020 RMK AO2
KPWT 081656Z AUTO 15003KT 10SM BKN008 16/14 A3020 RMK AO2 CIG 006V011 SLP229 T01560139
KPWT 081640Z AUTO 17003KT 10SM BKN008 BKN016 16/14 A3020 RMK AO2 CIG 006V012
KPWT 081615Z AUTO 00000KT 10SM FEW005 15/14 A3020 RMK AO2
KPWT 081556Z AUTO 00000KT 10SM CLR 14/13 A3020 RMK AO2 SLP229 T01440133
KPWT 081511Z AUTO 00000KT 10SM FEW021 BKN032 14/13 A3019 RMK AO2
KPWT 081456Z AUTO 00000KT 4SM BR SCT004 SCT008 BKN021 13/13 A3019 RMK AO2 RAE48 SLP227 P0000 60000 T01330133 51010
KPWT 081433Z AUTO 02003KT 2 1/2SM BR BKN004 OVC013 13/13 A3019 RMK AO2 RAE23 CIG 002V007 P0000
KPWT 081405Z AUTO 04003KT 2 1/2SM -RA BR SCT004 OVC011 13/13 A3018 RMK AO2 P0000
KPWT 081356Z AUTO 05003KT 3SM -RA BR FEW004 OVC011 13/13 A3018 RMK AO2 RAB41 SLP224 P0000 T01330128
KPWT 081346Z AUTO 05003KT 2 1/2SM -RA BR FEW004 OVC011 13/13 A3018 RMK AO2 VIS 1 1/2V5 RAB41 P0000
KPWT 081256Z AUTO 05003KT 3SM BR FEW004 OVC011 13/13 A3016 RMK AO2 SLP217 T01330128
KPWT 081241Z AUTO 05004KT 5SM BR SCT008 OVC013 13/13 A3016 RMK AO2
KPWT 081229Z AUTO 06004KT 7SM OVC013 13/13 A3016 RMK AO2
KPWT 081203Z AUTO 06003KT 10SM BKN015 14/13 A3016 RMK AO2
KPWT 081156Z AUTO 07003KT 10SM SCT015 14/12 A3016 RMK AO2 SLP215 6//// 7//// T01390122 10144 20139 51006
KPWT 081123Z AUTO 05005KT 10SM SCT017 14/12 A3015 RMK AO2
KPWT 081056Z AUTO 06004KT 10SM BKN017 14/12 A3015 RMK AO2 SLP213 T01390122
KPWT 080956Z AUTO 04005KT 10SM FEW019 14/12 A3015 RMK AO2 SLP212 T01390122
KPWT 080856Z AUTO 00000KT 10SM FEW060 14/12 A3014 RMK AO2 SLP209 6//// T01440122 50000
KPWT 080756Z AUTO 03003KT 10SM CLR 14/13 A3014 RMK AO2 SLP210 T01440128 402280072
KPWT 080656Z AUTO 05004KT 10SM CLR 14/13 A3014 RMK AO2 SLP210 T01440128
KPWT 080556Z AUTO 05006KT 10SM CLR 14/13 A3014 RMK AO2 SLP210 60002 T01440128 10222 20144 58001
KPWT 080456Z AUTO 04004KT 10SM CLR 14/13 A3015 RMK AO2 RAE43 SLP212 P0001 T01440128
KPWT 080356Z AUTO 06004KT 10SM -RA CLR 15/13 A3014 RMK AO2 SLP211 P0001 T01500128
KPWT 080256Z AUTO 04006KT 10SM -RA CLR 16/13 A3014 RMK AO2 SLP210 P0000 60000 T01610133 55001
KPWT 080156Z AUTO 06005KT 10SM -RA CLR 18/13 A3014 RMK AO2 RAB23 SLP208 P0000 T01830133
KPWT 080056Z AUTO 20004KT 10SM FEW060 22/10 A3014 RMK AO2 SLP209 T02170100
KPWT 072356Z AUTO 22005KT 10SM BKN060 22/11 A3015 RMK AO2 SLP212 T02170106 10228 20167 58011
KPWT 072256Z AUTO 29006KT 10SM FEW049 BKN065 22/11 A3016 RMK AO2 SLP216 T02170106
KPWT 072156Z AUTO VRB05KT 10SM BKN055 22/11 A3017 RMK AO2 SLP220 T02220106
KPWT 072056Z AUTO VRB04KT 10SM CLR 21/09 A3018 RMK AO2 SLP222 T02110089 58009
KPWT 071956Z AUTO 26005KT 10SM FEW030 19/12 A3019 RMK AO2 SLP225 T01890117
KPWT 071937Z AUTO 00000KT 10SM BKN030 19/11 A3019 RMK AO2
KPWT 071856Z AUTO VRB04KT 10SM BKN023 19/12 A3020 RMK AO2 SLP229 T01890117
KPWT 071840Z AUTO 00000KT 10SM BKN021 18/12 A3020 RMK AO2
KPWT 071805Z AUTO VRB03KT 6SM HZ SCT015 17/12 A3021 RMK AO2
KPWT 071756Z AUTO 10SM BKN013 17/12 A3020 RMK AO2 SLP231 6//// T01670117 10167 20094 51004
KPWT 071710Z AUTO 12005KT 10SM BKN011 14/12 A3020 RMK AO2
KPWT 071656Z AUTO 12005KT 10SM BKN009 14/12 A3020 RMK AO2 CIG 007V012 SLP230 T01440117
KPWT 071651Z AUTO 13003KT 10SM SCT009 14/12 A3020 RMK AO2
KPWT 071622Z AUTO 24003KT 10SM BKN009 13/12 A3020 RMK AO2
KPWT 071556Z AUTO 00000KT 10SM FEW009 13/11 A3019 RMK AO2 SLP227 T01330111
KPWT 071456Z AUTO 06004KT 10SM SCT002 12/12 A3018 RMK AO2 SLP222 6//// T01220117 51009
KPWT 071427Z AUTO 00000KT 3SM BR OVC002 12/11 A3018 RMK AO2
KPWT 071418Z AUTO 00000KT 1 1/4SM BR OVC002 11/11 A3018 RMK AO2
KPWT 071415Z AUTO 00000KT 3/4SM BR OVC002 11/11 RMK AO2 $
KPWT 071356Z AUTO 00000KT 1/4SM FG OVC002 11/11 A3017 RMK AO2 SLP220 T01110111
KPWT 071307Z AUTO 14004KT 1/4SM FG OVC002 11/11 A3016 RMK AO2
KPWT 071256Z AUTO 00000KT 1/2SM FG BKN002 OVC006 11/11 A3016 RMK AO2 CIG 001V005 SLP215 T01110111
KPWT 071252Z AUTO 00000KT 1SM BR OVC002 11/11 A3016 RMK AO2 VIS 1/4V3 CIG 001V006
KPWT 071246Z AUTO 00000KT 2 1/2SM BR OVC002 11/11 A3016 RMK AO2
KPWT 071234Z AUTO 00000KT 10SM BKN004 11/11 A3015 RMK AO2
KPWT 071156Z AUTO 00000KT 10SM SCT008 10/09 A3015 RMK AO2 SLP214 7//// T01000094 10117 20072 51009
KPWT 071125Z AUTO 12003KT 10SM BKN008 10/09 A3015 RMK AO2
KPWT 071109Z AUTO 12003KT 10SM FEW008 08/07 A3015 RMK AO2
KPWT 071056Z AUTO 00000KT 10SM CLR 08/08 A3015 RMK AO2 SLP212 T00830078
KPWT 070956Z AUTO 00000KT 10SM CLR 09/09 A3014 RMK AO2 SLP209 T00940089